sensor_id;sensor_type;location;lat;lon;timestamp;pressure;altitude;pressure_sealevel;temperature;humidity
51986;BME280;38002;53.296;6.600;2022-08-01T00:01:45;101667.19;;;20.09;78.35
51986;BME280;38002;53.296;6.600;2022-08-01T00:06:45;101683.78;;;20.09;78.44
51986;BME280;38002;53.296;6.600;2022-08-01T00:11:46;101685.44;;;20.03;78.59
51986;BME280;38002;53.296;6.600;2022-08-01T00:16:46;101676.47;;;19.94;78.34
51986;BME280;38002;53.296;6.600;2022-08-01T00:21:46;101671.31;;;19.85;79.03
51986;BME280;38002;53.296;6.600;2022-08-01T00:26:47;101637.56;;;19.55;78.56
51986;BME280;38002;53.296;6.600;2022-08-01T00:31:47;101702.13;;;19.88;78.85
51986;BME280;38002;53.296;6.600;2022-08-01T00:36:48;101684.41;;;19.76;78.67
51986;BME280;38002;53.296;6.600;2022-08-01T00:41:48;101709.56;;;19.88;78.72
51986;BME280;38002;53.296;6.600;2022-08-01T00:46:49;101708.72;;;19.87;78.75
51986;BME280;38002;53.296;6.600;2022-08-01T00:51:49;101699.47;;;19.74;78.82
51986;BME280;38002;53.296;6.600;2022-08-01T00:56:50;101702.41;;;19.66;78.72
51986;BME280;38002;53.296;6.600;2022-08-01T01:01:50;101716.00;;;19.67;78.96
51986;BME280;38002;53.296;6.600;2022-08-01T01:12:35;101719.31;;;19.56;79.41
51986;BME280;38002;53.296;6.600;2022-08-01T01:17:41;101714.19;;;19.53;78.95
51986;BME280;38002;53.296;6.600;2022-08-01T01:23:06;101714.59;;;19.50;79.15
51986;BME280;38002;53.296;6.600;2022-08-01T01:28:35;101708.81;;;19.45;79.15
51986;BME280;38002;53.296;6.600;2022-08-01T01:33:42;101707.81;;;19.31;79.12
51986;BME280;38002;53.296;6.600;2022-08-01T01:38:45;101718.41;;;19.28;79.26
51986;BME280;38002;53.296;6.600;2022-08-01T01:43:47;101708.59;;;19.25;79.20
51986;BME280;38002;53.296;6.600;2022-08-01T01:48:48;101725.41;;;19.30;78.92
51986;BME280;38002;53.296;6.600;2022-08-01T01:53:51;101728.56;;;19.27;78.72
51986;BME280;38002;53.296;6.600;2022-08-01T01:58:55;101740.25;;;19.29;78.76
51986;BME280;38002;53.296;6.600;2022-08-01T02:03:56;101741.69;;;19.25;78.66
51986;BME280;38002;53.296;6.600;2022-08-01T02:08:59;101743.59;;;19.25;78.99
51986;BME280;38002;53.296;6.600;2022-08-01T02:14:02;101742.09;;;19.22;78.79
51986;BME280;38002;53.296;6.600;2022-08-01T02:19:03;101760.81;;;19.27;78.64
51986;BME280;38002;53.296;6.600;2022-08-01T02:24:38;101755.88;;;19.22;78.81
51986;BME280;38002;53.296;6.600;2022-08-01T02:29:43;101753.53;;;19.19;78.68
51986;BME280;38002;53.296;6.600;2022-08-01T02:34:46;101738.94;;;19.04;78.79
51986;BME280;38002;53.296;6.600;2022-08-01T02:39:52;101751.22;;;19.01;78.77
51986;BME280;38002;53.296;6.600;2022-08-01T02:44:54;101721.25;;;18.77;78.56
51986;BME280;38002;53.296;6.600;2022-08-01T02:49:55;101782.59;;;19.00;78.57
51986;BME280;38002;53.296;6.600;2022-08-01T02:54:56;101768.47;;;18.89;78.45
51986;BME280;38002;53.296;6.600;2022-08-01T02:59:58;101777.09;;;18.86;78.63
51986;BME280;38002;53.296;6.600;2022-08-01T03:05:00;101777.69;;;18.81;78.79
51986;BME280;38002;53.296;6.600;2022-08-01T03:10:03;101777.03;;;18.79;78.47
51986;BME280;38002;53.296;6.600;2022-08-01T03:15:04;101768.22;;;18.69;78.98
51986;BME280;38002;53.296;6.600;2022-08-01T03:20:06;101792.53;;;18.80;78.80
51986;BME280;38002;53.296;6.600;2022-08-01T03:25:10;101786.56;;;18.77;78.93
51986;BME280;38002;53.296;6.600;2022-08-01T03:30:12;101798.03;;;18.80;78.72
51986;BME280;38002;53.296;6.600;2022-08-01T03:35:13;101802.22;;;18.76;78.85
51986;BME280;38002;53.296;6.600;2022-08-01T03:40:20;101801.84;;;18.79;79.10
51986;BME280;38002;53.296;6.600;2022-08-01T03:45:27;101786.38;;;18.64;78.82
51986;BME280;38002;53.296;6.600;2022-08-01T03:50:30;101809.81;;;18.74;78.71
51986;BME280;38002;53.296;6.600;2022-08-01T03:55:36;101781.88;;;18.48;78.59
51986;BME280;38002;53.296;6.600;2022-08-01T04:00:38;101802.72;;;18.50;78.67
51986;BME280;38002;53.296;6.600;2022-08-01T04:05:43;101799.94;;;18.50;78.33
51986;BME280;38002;53.296;6.600;2022-08-01T04:10:43;101766.44;;;18.18;78.79
51986;BME280;38002;53.296;6.600;2022-08-01T04:15:44;101819.03;;;18.37;78.82
51986;BME280;38002;53.296;6.600;2022-08-01T04:20:46;101821.03;;;18.29;78.51
51986;BME280;38002;53.296;6.600;2022-08-01T04:25:48;101845.13;;;18.27;78.59
51986;BME280;38002;53.296;6.600;2022-08-01T04:30:52;101846.69;;;18.29;78.16
51986;BME280;38002;53.296;6.600;2022-08-01T04:35:56;101831.53;;;18.25;78.07
51986;BME280;38002;53.296;6.600;2022-08-01T04:40:58;101846.38;;;18.24;77.91
51986;BME280;38002;53.296;6.600;2022-08-01T04:46:02;101855.41;;;18.33;77.89
51986;BME280;38002;53.296;6.600;2022-08-01T04:51:04;101851.13;;;18.30;77.53
51986;BME280;38002;53.296;6.600;2022-08-01T04:56:12;101869.91;;;18.27;77.84
51986;BME280;38002;53.296;6.600;2022-08-01T05:01:15;101864.41;;;18.27;77.83
51986;BME280;38002;53.296;6.600;2022-08-01T05:06:16;101831.72;;;18.09;77.38
51986;BME280;38002;53.296;6.600;2022-08-01T05:11:16;101876.75;;;18.31;77.67
51986;BME280;38002;53.296;6.600;2022-08-01T05:16:16;101879.50;;;18.31;77.70
51986;BME280;38002;53.296;6.600;2022-08-01T05:21:17;101874.22;;;18.29;77.74
51986;BME280;38002;53.296;6.600;2022-08-01T05:26:17;101884.16;;;18.30;77.51
51986;BME280;38002;53.296;6.600;2022-08-01T05:31:18;101888.16;;;18.28;77.16
51986;BME280;38002;53.296;6.600;2022-08-01T05:36:18;101901.84;;;18.36;77.24
51986;BME280;38002;53.296;6.600;2022-08-01T05:41:19;101902.03;;;18.34;76.94
51986;BME280;38002;53.296;6.600;2022-08-01T05:46:19;101882.66;;;18.28;76.51
51986;BME280;38002;53.296;6.600;2022-08-01T05:51:19;101887.78;;;18.31;76.70
51986;BME280;38002;53.296;6.600;2022-08-01T05:56:21;101906.41;;;18.43;76.61
51986;BME280;38002;53.296;6.600;2022-08-01T06:01:21;101898.06;;;18.37;76.50
51986;BME280;38002;53.296;6.600;2022-08-01T06:06:22;101912.78;;;18.44;76.15
51986;BME280;38002;53.296;6.600;2022-08-01T06:11:22;101898.78;;;18.31;76.00
51986;BME280;38002;53.296;6.600;2022-08-01T06:16:23;101909.94;;;18.37;76.06
51986;BME280;38002;53.296;6.600;2022-08-01T06:21:23;101917.34;;;18.37;75.76
51986;BME280;38002;53.296;6.600;2022-08-01T06:26:24;101929.97;;;18.46;75.56
51986;BME280;38002;53.296;6.600;2022-08-01T06:31:24;101929.78;;;18.47;75.51
51986;BME280;38002;53.296;6.600;2022-08-01T06:36:24;101931.31;;;18.50;75.61
51986;BME280;38002;53.296;6.600;2022-08-01T06:41:25;101916.47;;;18.36;75.36
51986;BME280;38002;53.296;6.600;2022-08-01T06:46:26;101939.91;;;18.55;74.96
51986;BME280;38002;53.296;6.600;2022-08-01T06:51:26;101935.44;;;18.69;74.88
51986;BME280;38002;53.296;6.600;2022-08-01T06:56:27;101958.91;;;18.79;74.28
51986;BME280;38002;53.296;6.600;2022-08-01T07:01:28;101941.34;;;18.80;74.22
51986;BME280;38002;53.296;6.600;2022-08-01T07:06:29;101958.25;;;18.92;74.01
51986;BME280;38002;53.296;6.600;2022-08-01T07:11:29;101946.66;;;18.96;73.68
51986;BME280;38002;53.296;6.600;2022-08-01T07:16:30;101962.25;;;19.04;73.42
51986;BME280;38002;53.296;6.600;2022-08-01T07:21:30;101915.56;;;18.73;73.40
51986;BME280;38002;53.296;6.600;2022-08-01T07:26:31;101961.09;;;18.98;73.12
51986;BME280;38002;53.296;6.600;2022-08-01T07:31:31;101974.31;;;19.03;73.18
51986;BME280;38002;53.296;6.600;2022-08-01T07:36:32;101975.75;;;19.14;72.46
51986;BME280;38002;53.296;6.600;2022-08-01T07:41:32;101982.97;;;19.15;71.99
51986;BME280;38002;53.296;6.600;2022-08-01T07:46:33;101976.31;;;19.24;71.88
51986;BME280;38002;53.296;6.600;2022-08-01T07:51:33;102002.28;;;19.44;71.02
51986;BME280;38002;53.296;6.600;2022-08-01T07:56:33;101965.00;;;19.48;70.64
51986;BME280;38002;53.296;6.600;2022-08-01T08:01:34;101977.69;;;19.64;70.18
51986;BME280;38002;53.296;6.600;2022-08-01T08:06:34;101980.75;;;19.90;69.51
51986;BME280;38002;53.296;6.600;2022-08-01T08:11:35;101986.75;;;20.15;68.58
51986;BME280;38002;53.296;6.600;2022-08-01T08:16:35;102008.03;;;20.63;68.00
51986;BME280;38002;53.296;6.600;2022-08-01T08:21:36;102006.31;;;20.62;67.90
51986;BME280;38002;53.296;6.600;2022-08-01T08:26:37;101995.22;;;20.56;68.04
51986;BME280;38002;53.296;6.600;2022-08-01T08:31:38;102015.59;;;21.04;66.64
51986;BME280;38002;53.296;6.600;2022-08-01T08:36:38;101988.03;;;21.17;66.06
51986;BME280;38002;53.296;6.600;2022-08-01T08:41:39;102004.41;;;21.18;66.25
51986;BME280;38002;53.296;6.600;2022-08-01T08:46:41;102037.81;;;21.51;65.58
51986;BME280;38002;53.296;6.600;2022-08-01T08:51:43;102020.72;;;21.89;64.92
51986;BME280;38002;53.296;6.600;2022-08-01T08:56:45;102026.81;;;22.32;64.13
51986;BME280;38002;53.296;6.600;2022-08-01T09:01:46;102023.00;;;22.59;63.04
51986;BME280;38002;53.296;6.600;2022-08-01T09:06:47;102043.09;;;22.81;63.02
51986;BME280;38002;53.296;6.600;2022-08-01T09:11:48;102050.75;;;22.98;62.37
51986;BME280;38002;53.296;6.600;2022-08-01T09:17:08;102055.25;;;22.86;62.30
51986;BME280;38002;53.296;6.600;2022-08-01T09:22:12;102066.28;;;23.32;61.77
51986;BME280;38002;53.296;6.600;2022-08-01T09:27:19;102058.66;;;22.95;61.72
51986;BME280;38002;53.296;6.600;2022-08-01T09:32:20;102080.56;;;23.36;60.33
51986;BME280;38002;53.296;6.600;2022-08-01T09:37:30;102086.31;;;23.67;59.50
51986;BME280;38002;53.296;6.600;2022-08-01T09:42:30;102087.44;;;23.33;60.58
51986;BME280;38002;53.296;6.600;2022-08-01T09:47:38;102090.66;;;22.97;60.40
51986;BME280;38002;53.296;6.600;2022-08-01T09:52:39;102094.25;;;23.37;59.74
51986;BME280;38002;53.296;6.600;2022-08-01T09:57:39;102096.97;;;23.77;58.68
51986;BME280;38002;53.296;6.600;2022-08-01T10:02:40;102098.03;;;23.76;58.31
51986;BME280;38002;53.296;6.600;2022-08-01T10:07:58;102097.53;;;23.92;56.75
51986;BME280;38002;53.296;6.600;2022-08-01T10:13:00;102105.75;;;23.67;58.15
51986;BME280;38002;53.296;6.600;2022-08-01T10:18:02;102102.50;;;23.77;57.26
51986;BME280;38002;53.296;6.600;2022-08-01T10:23:04;102105.50;;;23.69;57.62
51986;BME280;38002;53.296;6.600;2022-08-01T10:28:16;102110.88;;;23.57;56.66
51986;BME280;38002;53.296;6.600;2022-08-01T10:33:17;102108.56;;;24.12;55.42
51986;BME280;38002;53.296;6.600;2022-08-01T10:38:18;102108.38;;;24.00;55.53
51986;BME280;38002;53.296;6.600;2022-08-01T10:43:18;102091.22;;;24.23;54.57
51986;BME280;38002;53.296;6.600;2022-08-01T10:48:24;102109.03;;;24.78;53.64
51986;BME280;38002;53.296;6.600;2022-08-01T10:53:28;102081.84;;;24.80;52.87
51986;BME280;38002;53.296;6.600;2022-08-01T10:58:30;102113.53;;;25.10;52.70
51986;BME280;38002;53.296;6.600;2022-08-01T11:03:35;102117.75;;;25.13;52.82
51986;BME280;38002;53.296;6.600;2022-08-01T11:08:37;102110.53;;;25.30;52.19
51986;BME280;38002;53.296;6.600;2022-08-01T11:19:04;102128.38;;;25.22;51.94
51986;BME280;38002;53.296;6.600;2022-08-01T11:24:05;102118.16;;;25.41;51.11
51986;BME280;38002;53.296;6.600;2022-08-01T11:29:12;102138.44;;;25.48;50.89
51986;BME280;38002;53.296;6.600;2022-08-01T11:34:13;102114.16;;;25.55;50.65
51986;BME280;38002;53.296;6.600;2022-08-01T11:39:15;102127.78;;;25.82;50.12
51986;BME280;38002;53.296;6.600;2022-08-01T11:44:18;102133.75;;;25.85;49.83
51986;BME280;38002;53.296;6.600;2022-08-01T11:54:31;102093.59;;;25.32;49.32
51986;BME280;38002;53.296;6.600;2022-08-01T11:59:41;102114.56;;;25.34;49.03
51986;BME280;38002;53.296;6.600;2022-08-01T12:04:47;102130.41;;;25.34;49.13
51986;BME280;38002;53.296;6.600;2022-08-01T12:09:48;102133.31;;;25.20;49.13
51986;BME280;38002;53.296;6.600;2022-08-01T12:14:57;102136.72;;;25.47;47.90
51986;BME280;38002;53.296;6.600;2022-08-01T12:19:58;102109.06;;;25.70;47.48
51986;BME280;38002;53.296;6.600;2022-08-01T12:25:08;102116.59;;;25.88;47.15
51986;BME280;38002;53.296;6.600;2022-08-01T12:30:11;102124.41;;;25.80;47.08
51986;BME280;38002;53.296;6.600;2022-08-01T12:35:17;102126.66;;;25.71;47.37
51986;BME280;38002;53.296;6.600;2022-08-01T12:40:20;102127.47;;;26.08;46.13
51986;BME280;38002;53.296;6.600;2022-08-01T12:50:27;102129.47;;;26.67;44.84
51986;BME280;38002;53.296;6.600;2022-08-01T12:55:28;102110.41;;;26.64;44.89
51986;BME280;38002;53.296;6.600;2022-08-01T13:00:28;102095.19;;;26.48;44.87
51986;BME280;38002;53.296;6.600;2022-08-01T13:05:44;102120.13;;;26.61;43.96
51986;BME280;38002;53.296;6.600;2022-08-01T13:10:45;102112.53;;;26.21;45.09
51986;BME280;38002;53.296;6.600;2022-08-01T13:15:46;102129.63;;;26.42;45.02
51986;BME280;38002;53.296;6.600;2022-08-01T13:20:47;102130.28;;;26.56;45.43
51986;BME280;38002;53.296;6.600;2022-08-01T13:25:54;102132.94;;;26.51;44.98
51986;BME280;38002;53.296;6.600;2022-08-01T13:36:00;102141.31;;;26.62;43.97
51986;BME280;38002;53.296;6.600;2022-08-01T13:41:00;102089.72;;;26.42;43.62
51986;BME280;38002;53.296;6.600;2022-08-01T13:46:01;102136.72;;;26.86;43.79
51986;BME280;38002;53.296;6.600;2022-08-01T13:51:04;102133.88;;;26.75;43.69
51986;BME280;38002;53.296;6.600;2022-08-01T13:56:04;102116.63;;;26.66;43.96
51986;BME280;38002;53.296;6.600;2022-08-01T14:01:05;102120.81;;;26.57;43.85
51986;BME280;38002;53.296;6.600;2022-08-01T14:06:05;102130.97;;;26.81;43.42
51986;BME280;38002;53.296;6.600;2022-08-01T14:11:06;102125.56;;;26.86;42.83
51986;BME280;38002;53.296;6.600;2022-08-01T14:16:06;102114.75;;;26.90;42.86
51986;BME280;38002;53.296;6.600;2022-08-01T14:21:07;102137.00;;;26.96;42.34
51986;BME280;38002;53.296;6.600;2022-08-01T14:26:08;102107.47;;;26.89;42.15
51986;BME280;38002;53.296;6.600;2022-08-01T14:31:08;102105.50;;;26.89;42.29
51986;BME280;38002;53.296;6.600;2022-08-01T14:36:09;102116.16;;;26.81;42.47
51986;BME280;38002;53.296;6.600;2022-08-01T14:41:09;102119.47;;;26.89;42.26
51986;BME280;38002;53.296;6.600;2022-08-01T14:46:10;102111.19;;;26.83;42.01
51986;BME280;38002;53.296;6.600;2022-08-01T14:51:11;102122.53;;;26.88;42.36
51986;BME280;38002;53.296;6.600;2022-08-01T14:56:11;102112.72;;;26.67;42.27
51986;BME280;38002;53.296;6.600;2022-08-01T15:01:12;102127.00;;;26.59;42.32
51986;BME280;38002;53.296;6.600;2022-08-01T15:06:12;102122.75;;;26.56;42.24
51986;BME280;38002;53.296;6.600;2022-08-01T15:11:13;102130.84;;;26.46;41.89
51986;BME280;38002;53.296;6.600;2022-08-01T15:16:13;102124.59;;;26.33;42.19
51986;BME280;38002;53.296;6.600;2022-08-01T15:21:14;102108.19;;;26.06;42.00
51986;BME280;38002;53.296;6.600;2022-08-01T15:26:14;102121.22;;;25.94;42.40
51986;BME280;38002;53.296;6.600;2022-08-01T15:31:15;102100.34;;;25.67;42.38
51986;BME280;38002;53.296;6.600;2022-08-01T15:36:15;102129.28;;;25.66;42.18
51986;BME280;38002;53.296;6.600;2022-08-01T15:41:16;102117.38;;;25.52;42.13
51986;BME280;38002;53.296;6.600;2022-08-01T15:46:17;102127.53;;;25.22;42.47
51986;BME280;38002;53.296;6.600;2022-08-01T15:51:17;102123.56;;;25.11;42.95
51986;BME280;38002;53.296;6.600;2022-08-01T15:56:17;102112.53;;;24.98;42.56
51986;BME280;38002;53.296;6.600;2022-08-01T16:01:18;102122.09;;;24.77;42.91
51986;BME280;38002;53.296;6.600;2022-08-01T16:06:18;102130.03;;;24.74;42.77
51986;BME280;38002;53.296;6.600;2022-08-01T16:11:19;102132.69;;;24.62;43.06
51986;BME280;38002;53.296;6.600;2022-08-01T16:16:20;102117.03;;;24.36;43.10
51986;BME280;38002;53.296;6.600;2022-08-01T16:21:21;102143.97;;;24.29;43.94
51986;BME280;38002;53.296;6.600;2022-08-01T16:26:24;102132.09;;;24.09;44.09
51986;BME280;38002;53.296;6.600;2022-08-01T16:31:24;102143.25;;;23.96;44.15
51986;BME280;38002;53.296;6.600;2022-08-01T16:36:25;102148.41;;;23.86;43.73
51986;BME280;38002;53.296;6.600;2022-08-01T16:41:26;102129.03;;;23.66;44.01
51986;BME280;38002;53.296;6.600;2022-08-01T16:46:26;102140.38;;;23.51;44.04
51986;BME280;38002;53.296;6.600;2022-08-01T16:51:27;102122.88;;;23.25;43.74
51986;BME280;38002;53.296;6.600;2022-08-01T16:56:27;102142.53;;;23.17;43.89
51986;BME280;38002;53.296;6.600;2022-08-01T17:01:27;102109.22;;;22.84;43.90
51986;BME280;38002;53.296;6.600;2022-08-01T17:06:28;102128.00;;;22.75;44.52
51986;BME280;38002;53.296;6.600;2022-08-01T17:11:30;102121.47;;;22.35;44.76
51986;BME280;38002;53.296;6.600;2022-08-01T17:16:30;102132.50;;;22.09;45.53
51986;BME280;38002;53.296;6.600;2022-08-01T17:21:31;102127.53;;;21.98;45.55
51986;BME280;38002;53.296;6.600;2022-08-01T17:26:32;102124.63;;;21.78;46.30
51986;BME280;38002;53.296;6.600;2022-08-01T17:31:33;102113.59;;;21.50;46.51
51986;BME280;38002;53.296;6.600;2022-08-01T17:36:33;102127.41;;;21.44;46.69
51986;BME280;38002;53.296;6.600;2022-08-01T17:41:34;102121.78;;;21.31;47.04
51986;BME280;38002;53.296;6.600;2022-08-01T17:46:35;102119.56;;;21.19;47.13
51986;BME280;38002;53.296;6.600;2022-08-01T17:51:35;102137.19;;;21.18;47.63
51986;BME280;38002;53.296;6.600;2022-08-01T17:56:36;102118.19;;;21.09;47.50
51986;BME280;38002;53.296;6.600;2022-08-01T18:01:36;102132.69;;;20.90;47.53
51986;BME280;38002;53.296;6.600;2022-08-01T18:06:37;102080.94;;;20.62;47.86
51986;BME280;38002;53.296;6.600;2022-08-01T18:11:38;102137.03;;;20.77;48.25
51986;BME280;38002;53.296;6.600;2022-08-01T18:16:38;102137.69;;;20.58;48.34
51986;BME280;38002;53.296;6.600;2022-08-01T18:21:38;102138.50;;;20.52;48.46
51986;BME280;38002;53.296;6.600;2022-08-01T18:26:39;102122.63;;;20.40;48.92
51986;BME280;38002;53.296;6.600;2022-08-01T18:31:39;102148.06;;;20.35;49.55
51986;BME280;38002;53.296;6.600;2022-08-01T18:36:40;102155.13;;;20.23;49.67
51986;BME280;38002;53.296;6.600;2022-08-01T18:41:40;102076.34;;;19.76;49.50
51986;BME280;38002;53.296;6.600;2022-08-01T18:46:41;102148.66;;;20.16;49.91
51986;BME280;38002;53.296;6.600;2022-08-01T18:51:41;102158.09;;;20.07;50.24
51986;BME280;38002;53.296;6.600;2022-08-01T18:56:44;102145.94;;;19.86;50.44
51986;BME280;38002;53.296;6.600;2022-08-01T19:01:44;102144.31;;;19.77;50.72
51986;BME280;38002;53.296;6.600;2022-08-01T19:06:44;102155.56;;;19.61;51.10
51986;BME280;38002;53.296;6.600;2022-08-01T19:11:45;102149.44;;;19.51;51.51
51986;BME280;38002;53.296;6.600;2022-08-01T19:16:46;102148.75;;;19.34;51.79
51986;BME280;38002;53.296;6.600;2022-08-01T19:21:47;102146.31;;;19.17;52.23
51986;BME280;38002;53.296;6.600;2022-08-01T19:26:50;102142.22;;;18.98;52.48
51986;BME280;38002;53.296;6.600;2022-08-01T19:31:52;102132.38;;;18.81;52.69
51986;BME280;38002;53.296;6.600;2022-08-01T19:36:54;102154.47;;;18.73;52.91
51986;BME280;38002;53.296;6.600;2022-08-01T19:41:56;102137.44;;;18.46;52.90
51986;BME280;38002;53.296;6.600;2022-08-01T19:46:59;102161.03;;;18.41;53.35
51986;BME280;38002;53.296;6.600;2022-08-01T19:52:02;102156.66;;;18.24;53.65
51986;BME280;38002;53.296;6.600;2022-08-01T19:57:05;102171.34;;;18.16;53.66
51986;BME280;38002;53.296;6.600;2022-08-01T20:02:06;102164.00;;;18.00;54.21
51986;BME280;38002;53.296;6.600;2022-08-01T20:07:07;102156.19;;;17.81;54.58
51986;BME280;38002;53.296;6.600;2022-08-01T20:12:08;102156.03;;;17.75;54.79
51986;BME280;38002;53.296;6.600;2022-08-01T20:17:08;102139.72;;;17.49;55.08
51986;BME280;38002;53.296;6.600;2022-08-01T20:22:09;102140.44;;;17.35;55.45
51986;BME280;38002;53.296;6.600;2022-08-01T20:27:11;102153.69;;;17.31;55.81
51986;BME280;38002;53.296;6.600;2022-08-01T20:32:11;102150.63;;;17.18;56.03
51986;BME280;38002;53.296;6.600;2022-08-01T20:37:16;102157.16;;;17.01;56.45
51986;BME280;38002;53.296;6.600;2022-08-01T20:42:18;102142.56;;;16.76;57.31
51986;BME280;38002;53.296;6.600;2022-08-01T20:47:20;102149.59;;;16.70;57.47
51986;BME280;38002;53.296;6.600;2022-08-01T20:52:20;102143.91;;;16.56;57.66
51986;BME280;38002;53.296;6.600;2022-08-01T20:57:22;102149.09;;;16.59;57.88
51986;BME280;38002;53.296;6.600;2022-08-01T21:07:52;102137.69;;;16.38;58.57
51986;BME280;38002;53.296;6.600;2022-08-01T21:13:00;102140.78;;;16.34;58.64
51986;BME280;38002;53.296;6.600;2022-08-01T21:18:13;102141.78;;;16.17;59.30
51986;BME280;38002;53.296;6.600;2022-08-01T21:28:32;102152.63;;;15.85;59.50
51986;BME280;38002;53.296;6.600;2022-08-01T21:33:34;102181.28;;;15.91;59.75
51986;BME280;38002;53.296;6.600;2022-08-01T21:38:36;102178.66;;;15.81;60.14
51986;BME280;38002;53.296;6.600;2022-08-01T21:43:40;102142.03;;;15.56;60.58
51986;BME280;38002;53.296;6.600;2022-08-01T21:48:42;102144.25;;;15.53;60.77
51986;BME280;38002;53.296;6.600;2022-08-01T21:54:00;102121.97;;;15.30;60.66
51986;BME280;38002;53.296;6.600;2022-08-01T21:59:10;102161.38;;;15.55;61.00
51986;BME280;38002;53.296;6.600;2022-08-01T22:04:15;102125.41;;;15.32;61.28
51986;BME280;38002;53.296;6.600;2022-08-01T22:09:17;102160.94;;;15.41;61.08
51986;BME280;38002;53.296;6.600;2022-08-01T22:14:20;102131.66;;;15.16;61.59
51986;BME280;38002;53.296;6.600;2022-08-01T22:19:22;102130.78;;;15.16;61.67
51986;BME280;38002;53.296;6.600;2022-08-01T22:24:23;102145.75;;;15.21;61.93
51986;BME280;38002;53.296;6.600;2022-08-01T22:29:26;102147.75;;;15.19;61.89
51986;BME280;38002;53.296;6.600;2022-08-01T22:34:27;102127.78;;;15.01;61.44
51986;BME280;38002;53.296;6.600;2022-08-01T22:39:28;102140.78;;;14.99;61.67
51986;BME280;38002;53.296;6.600;2022-08-01T22:44:34;102160.44;;;14.94;62.30
51986;BME280;38002;53.296;6.600;2022-08-01T22:49:47;102146.13;;;14.83;62.60
51986;BME280;38002;53.296;6.600;2022-08-01T22:55:00;102144.41;;;14.82;63.09
51986;BME280;38002;53.296;6.600;2022-08-01T23:00:08;102144.66;;;14.71;63.32
51986;BME280;38002;53.296;6.600;2022-08-01T23:05:13;102137.78;;;14.67;63.39
51986;BME280;38002;53.296;6.600;2022-08-01T23:10:14;102134.25;;;14.57;63.00
51986;BME280;38002;53.296;6.600;2022-08-01T23:15:15;102125.66;;;14.51;63.60
51986;BME280;38002;53.296;6.600;2022-08-01T23:20:16;102120.50;;;14.48;63.58
51986;BME280;38002;53.296;6.600;2022-08-01T23:25:16;102114.56;;;14.35;63.68
51986;BME280;38002;53.296;6.600;2022-08-01T23:30:17;102122.78;;;14.35;64.49
51986;BME280;38002;53.296;6.600;2022-08-01T23:35:18;102121.44;;;14.39;64.43
51986;BME280;38002;53.296;6.600;2022-08-01T23:40:18;102103.63;;;14.35;64.59
51986;BME280;38002;53.296;6.600;2022-08-01T23:45:20;102109.16;;;14.43;64.77
51986;BME280;38002;53.296;6.600;2022-08-01T23:50:20;102099.75;;;14.46;64.63
51986;BME280;38002;53.296;6.600;2022-08-01T23:55:22;102100.09;;;14.43;65.23
